sensor_id;sensor_type;location;lat;lon;timestamp;pressure;altitude;pressure_sealevel;temperature;humidity
49104;BME280;34915;52.926;11.116;2022-08-04T00:00:25;101265.31;;;21.97;78.67
49104;BME280;34915;52.926;11.116;2022-08-04T00:05:34;101263.75;;;21.71;80.09
49104;BME280;34915;52.926;11.116;2022-08-04T00:08:15;101259.91;;;21.66;80.07
49104;BME280;34915;52.926;11.116;2022-08-04T00:10:48;101256.84;;;21.61;80.53
49104;BME280;34915;52.926;11.116;2022-08-04T00:13:16;101264.94;;;21.53;81.04
49104;BME280;34915;52.926;11.116;2022-08-04T00:16:02;101262.16;;;21.45;81.05
49104;BME280;34915;52.926;11.116;2022-08-04T00:18:40;101261.16;;;21.38;82.18
49104;BME280;34915;52.926;11.116;2022-08-04T00:21:10;101256.78;;;21.45;83.28
49104;BME280;34915;52.926;11.116;2022-08-04T00:23:38;101263.91;;;21.54;82.74
49104;BME280;34915;52.926;11.116;2022-08-04T00:26:04;101257.84;;;21.52;82.95
49104;BME280;34915;52.926;11.116;2022-08-04T00:28:30;101249.41;;;21.47;82.47
49104;BME280;34915;52.926;11.116;2022-08-04T00:30:55;101263.88;;;21.46;81.62
49104;BME280;34915;52.926;11.116;2022-08-04T00:33:21;101261.78;;;21.32;82.36
49104;BME280;34915;52.926;11.116;2022-08-04T00:35:48;101255.34;;;21.09;82.61
49104;BME280;34915;52.926;11.116;2022-08-04T00:38:15;101261.38;;;21.03;82.97
49104;BME280;34915;52.926;11.116;2022-08-04T00:43:32;101269.31;;;20.79;84.70
49104;BME280;34915;52.926;11.116;2022-08-04T00:54:02;101263.63;;;20.82;84.83
49104;BME280;34915;52.926;11.116;2022-08-04T01:02:34;101250.19;;;20.65;85.92
49104;BME280;34915;52.926;11.116;2022-08-04T01:05:06;101258.88;;;20.77;85.48
49104;BME280;34915;52.926;11.116;2022-08-04T01:27:10;101254.97;;;20.71;84.78
49104;BME280;34915;52.926;11.116;2022-08-04T01:29:40;101268.31;;;20.73;86.15
49104;BME280;34915;52.926;11.116;2022-08-04T01:32:26;101266.16;;;20.59;85.45
49104;BME280;34915;52.926;11.116;2022-08-04T01:35:02;101269.09;;;20.48;85.59
49104;BME280;34915;52.926;11.116;2022-08-04T01:37:46;101260.97;;;20.40;86.60
49104;BME280;34915;52.926;11.116;2022-08-04T01:40:14;101256.34;;;20.50;86.82
49104;BME280;34915;52.926;11.116;2022-08-04T01:42:40;101258.31;;;20.48;86.22
49104;BME280;34915;52.926;11.116;2022-08-04T01:45:11;101254.66;;;20.49;86.73
49104;BME280;34915;52.926;11.116;2022-08-04T01:47:42;101257.63;;;20.38;86.33
49104;BME280;34915;52.926;11.116;2022-08-04T01:50:12;101259.91;;;20.33;86.28
49104;BME280;34915;52.926;11.116;2022-08-04T01:52:40;101258.00;;;20.26;87.60
49104;BME280;34915;52.926;11.116;2022-08-04T01:55:08;101260.88;;;20.24;86.73
49104;BME280;34915;52.926;11.116;2022-08-04T01:57:37;101255.81;;;20.21;86.54
49104;BME280;34915;52.926;11.116;2022-08-04T02:00:06;101259.88;;;20.25;87.22
49104;BME280;34915;52.926;11.116;2022-08-04T02:02:32;101250.41;;;20.21;87.21
49104;BME280;34915;52.926;11.116;2022-08-04T02:04:58;101255.03;;;20.11;86.84
49104;BME280;34915;52.926;11.116;2022-08-04T02:12:55;101253.44;;;20.18;88.19
49104;BME280;34915;52.926;11.116;2022-08-04T02:15:29;101254.50;;;20.25;88.33
49104;BME280;34915;52.926;11.116;2022-08-04T02:18:02;101250.94;;;20.25;86.82
49104;BME280;34915;52.926;11.116;2022-08-04T02:20:40;101250.09;;;20.24;87.14
49104;BME280;34915;52.926;11.116;2022-08-04T02:23:10;101243.72;;;20.25;87.92
49104;BME280;34915;52.926;11.116;2022-08-04T02:25:42;101247.09;;;20.27;87.81
49104;BME280;34915;52.926;11.116;2022-08-04T02:33:45;101240.16;;;20.25;87.13
49104;BME280;34915;52.926;11.116;2022-08-04T02:36:35;101235.72;;;20.16;86.81
49104;BME280;34915;52.926;11.116;2022-08-04T02:39:03;101235.13;;;20.04;88.27
49104;BME280;34915;52.926;11.116;2022-08-04T02:41:30;101237.81;;;20.04;88.18
49104;BME280;34915;52.926;11.116;2022-08-04T02:44:01;101234.16;;;20.05;88.46
49104;BME280;34915;52.926;11.116;2022-08-04T02:46:28;101233.84;;;20.08;88.50
49104;BME280;34915;52.926;11.116;2022-08-04T02:48:54;101233.84;;;20.08;88.90
49104;BME280;34915;52.926;11.116;2022-08-04T02:51:23;101228.44;;;20.08;88.75
49104;BME280;34915;52.926;11.116;2022-08-04T02:53:52;101227.06;;;20.04;87.23
49104;BME280;34915;52.926;11.116;2022-08-04T02:56:19;101225.47;;;19.94;88.08
49104;BME280;34915;52.926;11.116;2022-08-04T02:58:50;101219.63;;;19.81;89.95
49104;BME280;34915;52.926;11.116;2022-08-04T03:01:16;101223.47;;;19.78;90.22
49104;BME280;34915;52.926;11.116;2022-08-04T03:06:39;101226.66;;;19.57;90.91
49104;BME280;34915;52.926;11.116;2022-08-04T03:45:53;101239.50;;;19.36;92.78
49104;BME280;34915;52.926;11.116;2022-08-04T03:55:22;101237.47;;;19.03;93.38
49104;BME280;34915;52.926;11.116;2022-08-04T04:14:16;101228.88;;;18.90;95.02
49104;BME280;34915;52.926;11.116;2022-08-04T04:39:05;101242.75;;;19.22;94.83
49104;BME280;34915;52.926;11.116;2022-08-04T04:42:16;101241.28;;;19.27;94.67
49104;BME280;34915;52.926;11.116;2022-08-04T04:53:11;101238.53;;;19.54;95.69
49104;BME280;34915;52.926;11.116;2022-08-04T04:56:09;101233.47;;;19.69;93.31
49104;BME280;34915;52.926;11.116;2022-08-04T04:58:37;101227.84;;;19.79;91.87
49104;BME280;34915;52.926;11.116;2022-08-04T05:09:21;101236.78;;;19.97;92.58
49104;BME280;34915;52.926;11.116;2022-08-04T05:14:29;101230.78;;;20.03;91.79
49104;BME280;34915;52.926;11.116;2022-08-04T05:22:27;101248.09;;;20.26;91.82
49104;BME280;34915;52.926;11.116;2022-08-04T05:25:07;101244.09;;;20.30;92.14
49104;BME280;34915;52.926;11.116;2022-08-04T05:27:40;101243.44;;;20.36;91.08
49104;BME280;34915;52.926;11.116;2022-08-04T05:30:09;101244.50;;;20.43;91.33
49104;BME280;34915;52.926;11.116;2022-08-04T05:32:56;101243.22;;;20.55;90.96
49104;BME280;34915;52.926;11.116;2022-08-04T05:35:33;101243.66;;;20.68;90.28
49104;BME280;34915;52.926;11.116;2022-08-04T05:38:02;101249.78;;;20.77;90.42
49104;BME280;34915;52.926;11.116;2022-08-04T05:40:28;101236.03;;;20.88;88.24
49104;BME280;34915;52.926;11.116;2022-08-04T05:42:55;101242.13;;;20.98;87.84
49104;BME280;34915;52.926;11.116;2022-08-04T05:45:22;101239.16;;;21.09;88.07
49104;BME280;34915;52.926;11.116;2022-08-04T05:47:50;101233.63;;;21.19;87.80
49104;BME280;34915;52.926;11.116;2022-08-04T05:50:17;101236.84;;;21.30;87.82
49104;BME280;34915;52.926;11.116;2022-08-04T05:52:43;101231.84;;;21.43;87.80
49104;BME280;34915;52.926;11.116;2022-08-04T05:55:11;101232.72;;;21.59;86.26
49104;BME280;34915;52.926;11.116;2022-08-04T05:57:39;101224.50;;;21.77;84.59
49104;BME280;34915;52.926;11.116;2022-08-04T06:00:05;101219.78;;;21.86;84.82
49104;BME280;34915;52.926;11.116;2022-08-04T06:02:34;101231.91;;;21.98;85.27
49104;BME280;34915;52.926;11.116;2022-08-04T06:05:02;101224.16;;;22.27;82.97
49104;BME280;34915;52.926;11.116;2022-08-04T06:07:30;101222.78;;;22.39;82.05
49104;BME280;34915;52.926;11.116;2022-08-04T06:09:56;101221.41;;;22.51;82.31
49104;BME280;34915;52.926;11.116;2022-08-04T06:12:37;101221.22;;;22.60;82.23
49104;BME280;34915;52.926;11.116;2022-08-04T06:15:08;101225.06;;;22.66;82.11
49104;BME280;34915;52.926;11.116;2022-08-04T06:17:41;101227.09;;;22.72;82.03
49104;BME280;34915;52.926;11.116;2022-08-04T06:20:09;101223.69;;;22.77;82.11
49104;BME280;34915;52.926;11.116;2022-08-04T06:22:39;101226.00;;;22.88;81.99
49104;BME280;34915;52.926;11.116;2022-08-04T06:25:08;101224.44;;;23.02;83.26
49104;BME280;34915;52.926;11.116;2022-08-04T06:27:39;101227.31;;;23.08;81.53
49104;BME280;34915;52.926;11.116;2022-08-04T06:30:05;101238.41;;;23.21;80.44
49104;BME280;34915;52.926;11.116;2022-08-04T06:32:35;101235.28;;;23.32;81.29
49104;BME280;34915;52.926;11.116;2022-08-04T06:35:14;101232.19;;;23.43;79.47
49104;BME280;34915;52.926;11.116;2022-08-04T06:37:40;101230.06;;;23.53;79.38
49104;BME280;34915;52.926;11.116;2022-08-04T06:40:07;101224.25;;;23.64;78.31
49104;BME280;34915;52.926;11.116;2022-08-04T06:42:34;101224.53;;;23.77;77.47
49104;BME280;34915;52.926;11.116;2022-08-04T06:45:00;101223.44;;;23.85;76.69
49104;BME280;34915;52.926;11.116;2022-08-04T06:47:30;101221.69;;;23.92;77.24
49104;BME280;34915;52.926;11.116;2022-08-04T06:49:56;101214.50;;;23.99;77.97
49104;BME280;34915;52.926;11.116;2022-08-04T06:52:23;101213.44;;;24.08;76.63
49104;BME280;34915;52.926;11.116;2022-08-04T06:54:52;101211.97;;;24.20;77.06
49104;BME280;34915;52.926;11.116;2022-08-04T06:57:22;101213.75;;;24.27;77.03
49104;BME280;34915;52.926;11.116;2022-08-04T07:00:01;101214.19;;;24.39;76.03
49104;BME280;34915;52.926;11.116;2022-08-04T07:02:30;101206.03;;;24.39;74.95
49104;BME280;34915;52.926;11.116;2022-08-04T07:04:57;101215.41;;;24.51;75.75
49104;BME280;34915;52.926;11.116;2022-08-04T07:07:23;101218.19;;;24.72;73.21
49104;BME280;34915;52.926;11.116;2022-08-04T07:09:49;101210.38;;;24.77;73.67
49104;BME280;34915;52.926;11.116;2022-08-04T07:12:18;101215.59;;;24.92;74.67
49104;BME280;34915;52.926;11.116;2022-08-04T07:14:47;101214.28;;;24.88;74.14
49104;BME280;34915;52.926;11.116;2022-08-04T07:17:14;101211.44;;;24.96;74.95
49104;BME280;34915;52.926;11.116;2022-08-04T07:19:40;101202.38;;;25.04;74.80
49104;BME280;34915;52.926;11.116;2022-08-04T07:22:07;101207.91;;;25.10;74.44
49104;BME280;34915;52.926;11.116;2022-08-04T07:24:35;101200.13;;;25.22;72.88
49104;BME280;34915;52.926;11.116;2022-08-04T07:27:02;101190.25;;;25.35;73.06
49104;BME280;34915;52.926;11.116;2022-08-04T07:29:28;101197.50;;;25.49;72.61
49104;BME280;34915;52.926;11.116;2022-08-04T07:31:55;101198.19;;;25.72;66.16
49104;BME280;34915;52.926;11.116;2022-08-04T07:34:21;101193.41;;;25.94;64.51
49104;BME280;34915;52.926;11.116;2022-08-04T07:36:52;101198.56;;;26.10;66.08
49104;BME280;34915;52.926;11.116;2022-08-04T07:39:19;101192.81;;;26.26;66.61
49104;BME280;34915;52.926;11.116;2022-08-04T07:41:45;101196.31;;;26.41;64.28
49104;BME280;34915;52.926;11.116;2022-08-04T07:44:15;101188.78;;;26.43;65.63
49104;BME280;34915;52.926;11.116;2022-08-04T07:46:42;101193.41;;;26.49;65.09
49104;BME280;34915;52.926;11.116;2022-08-04T07:49:10;101182.22;;;26.65;62.48
49104;BME280;34915;52.926;11.116;2022-08-04T07:51:36;101189.88;;;26.88;61.42
49104;BME280;34915;52.926;11.116;2022-08-04T07:54:03;101183.72;;;27.07;62.22
49104;BME280;34915;52.926;11.116;2022-08-04T07:56:30;101187.53;;;27.19;62.14
49104;BME280;34915;52.926;11.116;2022-08-04T07:58:56;101190.94;;;27.34;60.69
49104;BME280;34915;52.926;11.116;2022-08-04T08:01:24;101179.66;;;27.50;60.87
49104;BME280;34915;52.926;11.116;2022-08-04T08:03:53;101176.19;;;27.82;54.90
49104;BME280;34915;52.926;11.116;2022-08-04T08:06:19;101176.81;;;28.03;57.29
49104;BME280;34915;52.926;11.116;2022-08-04T08:08:45;101178.94;;;28.20;55.49
49104;BME280;34915;52.926;11.116;2022-08-04T08:11:11;101177.22;;;28.45;55.74
49104;BME280;34915;52.926;11.116;2022-08-04T08:13:37;101178.88;;;28.59;55.48
49104;BME280;34915;52.926;11.116;2022-08-04T08:16:04;101172.78;;;28.70;55.75
49104;BME280;34915;52.926;11.116;2022-08-04T08:18:30;101160.31;;;28.93;52.75
49104;BME280;34915;52.926;11.116;2022-08-04T08:20:57;101179.16;;;29.07;56.10
49104;BME280;34915;52.926;11.116;2022-08-04T08:23:24;101164.38;;;29.21;55.63
49104;BME280;34915;52.926;11.116;2022-08-04T08:25:50;101163.31;;;29.22;54.76
49104;BME280;34915;52.926;11.116;2022-08-04T08:28:16;101169.09;;;29.45;50.32
49104;BME280;34915;52.926;11.116;2022-08-04T08:30:42;101152.44;;;29.53;49.56
49104;BME280;34915;52.926;11.116;2022-08-04T08:33:11;101160.28;;;29.74;51.83
49104;BME280;34915;52.926;11.116;2022-08-04T08:51:58;101144.44;;;30.55;47.01
49104;BME280;34915;52.926;11.116;2022-08-04T09:05:37;101137.03;;;31.38;44.14
49104;BME280;34915;52.926;11.116;2022-08-04T09:11:12;101129.25;;;31.53;40.28
49104;BME280;34915;52.926;11.116;2022-08-04T09:13:44;101139.41;;;31.52;41.46
49104;BME280;34915;52.926;11.116;2022-08-04T09:16:21;101135.00;;;31.63;38.93
49104;BME280;34915;52.926;11.116;2022-08-04T09:21:38;101133.38;;;31.85;41.18
49104;BME280;34915;52.926;11.116;2022-08-04T09:24:21;101129.59;;;32.08;40.18
49104;BME280;34915;52.926;11.116;2022-08-04T09:34:56;101124.38;;;32.52;35.77
49104;BME280;34915;52.926;11.116;2022-08-04T09:37:47;101127.94;;;32.53;39.28
49104;BME280;34915;52.926;11.116;2022-08-04T09:40:28;101124.56;;;32.74;36.76
49104;BME280;34915;52.926;11.116;2022-08-04T09:54:02;101119.94;;;33.13;35.76
49104;BME280;34915;52.926;11.116;2022-08-04T09:57:16;101107.47;;;33.22;36.23
49104;BME280;34915;52.926;11.116;2022-08-04T10:02:36;101095.00;;;33.31;34.95
49104;BME280;34915;52.926;11.116;2022-08-04T10:05:18;101083.31;;;33.24;36.42
49104;BME280;34915;52.926;11.116;2022-08-04T10:10:49;101091.50;;;33.36;34.61
49104;BME280;34915;52.926;11.116;2022-08-04T10:16:10;101079.75;;;33.40;34.58
49104;BME280;34915;52.926;11.116;2022-08-04T10:21:37;101085.91;;;33.75;33.20
49104;BME280;34915;52.926;11.116;2022-08-04T10:26:52;101073.72;;;33.87;32.02
49104;BME280;34915;52.926;11.116;2022-08-04T10:29:30;101078.72;;;33.74;33.73
49104;BME280;34915;52.926;11.116;2022-08-04T10:32:17;101066.72;;;33.80;32.71
49104;BME280;34915;52.926;11.116;2022-08-04T10:35:14;101067.56;;;33.64;32.55
49104;BME280;34915;52.926;11.116;2022-08-04T10:37:51;101054.06;;;33.79;31.32
49104;BME280;34915;52.926;11.116;2022-08-04T10:48:23;101052.50;;;34.20;30.52
49104;BME280;34915;52.926;11.116;2022-08-04T10:51:26;101041.88;;;34.07;32.33
49104;BME280;34915;52.926;11.116;2022-08-04T10:54:02;101039.88;;;34.19;30.31
49104;BME280;34915;52.926;11.116;2022-08-04T10:56:48;101009.13;;;34.27;30.27
49104;BME280;34915;52.926;11.116;2022-08-04T10:59:32;101034.34;;;34.19;31.13
49104;BME280;34915;52.926;11.116;2022-08-04T11:02:11;101038.38;;;33.95;32.26
49104;BME280;34915;52.926;11.116;2022-08-04T11:04:46;101038.38;;;33.95;31.98
49104;BME280;34915;52.926;11.116;2022-08-04T11:07:16;101029.28;;;34.11;31.41
49104;BME280;34915;52.926;11.116;2022-08-04T11:09:43;101028.19;;;34.12;31.06
49104;BME280;34915;52.926;11.116;2022-08-04T11:12:14;101024.44;;;34.18;30.10
49104;BME280;34915;52.926;11.116;2022-08-04T11:16:03;101026.00;;;34.14;30.99
49104;BME280;34915;52.926;11.116;2022-08-04T11:17:58;101017.50;;;34.16;30.28
49104;BME280;34915;52.926;11.116;2022-08-04T11:20:37;101011.75;;;34.17;31.81
49104;BME280;34915;52.926;11.116;2022-08-04T11:23:13;101022.09;;;34.48;28.92
49104;BME280;34915;52.926;11.116;2022-08-04T11:25:55;101011.84;;;34.65;30.79
49104;BME280;34915;52.926;11.116;2022-08-04T11:31:25;101023.75;;;34.49;29.67
49104;BME280;34915;52.926;11.116;2022-08-04T11:39:20;101007.75;;;34.46;29.21
49104;BME280;34915;52.926;11.116;2022-08-04T11:41:56;101014.44;;;34.34;30.49
49104;BME280;34915;52.926;11.116;2022-08-04T11:46:58;101015.50;;;34.49;29.68
49104;BME280;34915;52.926;11.116;2022-08-04T11:51:52;101018.81;;;34.72;28.85
49104;BME280;34915;52.926;11.116;2022-08-04T11:54:22;101012.41;;;34.67;29.83
49104;BME280;34915;52.926;11.116;2022-08-04T11:56:48;101010.56;;;34.51;31.36
49104;BME280;34915;52.926;11.116;2022-08-04T11:59:14;101004.31;;;34.39;30.98
49104;BME280;34915;52.926;11.116;2022-08-04T12:01:55;101004.13;;;34.67;29.31
49104;BME280;34915;52.926;11.116;2022-08-04T12:04:53;101010.69;;;34.61;30.84
49104;BME280;34915;52.926;11.116;2022-08-04T12:12:48;101003.22;;;34.83;30.70
49104;BME280;34915;52.926;11.116;2022-08-04T12:16:24;101004.50;;;34.75;30.66
49104;BME280;34915;52.926;11.116;2022-08-04T12:19:00;101001.09;;;34.42;31.12
49104;BME280;34915;52.926;11.116;2022-08-04T12:21:32;100992.75;;;34.37;30.38
49104;BME280;34915;52.926;11.116;2022-08-04T12:24:15;100995.41;;;34.48;30.50
49104;BME280;34915;52.926;11.116;2022-08-04T12:26:51;100993.13;;;34.67;30.25
49104;BME280;34915;52.926;11.116;2022-08-04T12:29:26;100992.06;;;34.46;30.42
49104;BME280;34915;52.926;11.116;2022-08-04T12:31:58;100998.41;;;34.47;29.37
49104;BME280;34915;52.926;11.116;2022-08-04T12:37:05;100983.97;;;34.19;31.15
49104;BME280;34915;52.926;11.116;2022-08-04T12:39:32;100975.97;;;34.17;31.04
49104;BME280;34915;52.926;11.116;2022-08-04T12:42:14;100980.94;;;34.20;29.68
49104;BME280;34915;52.926;11.116;2022-08-04T12:44:42;100979.16;;;34.09;30.18
49104;BME280;34915;52.926;11.116;2022-08-04T12:47:13;100974.88;;;34.18;29.63
49104;BME280;34915;52.926;11.116;2022-08-04T12:49:43;100982.56;;;34.16;29.73
49104;BME280;34915;52.926;11.116;2022-08-04T12:52:10;100976.47;;;34.14;30.12
49104;BME280;34915;52.926;11.116;2022-08-04T12:54:39;100974.38;;;33.84;30.55
49104;BME280;34915;52.926;11.116;2022-08-04T12:57:09;100972.06;;;33.59;32.21
49104;BME280;34915;52.926;11.116;2022-08-04T12:59:45;100957.41;;;33.21;33.70
49104;BME280;34915;52.926;11.116;2022-08-04T13:02:40;100967.84;;;32.91;34.92
49104;BME280;34915;52.926;11.116;2022-08-04T13:05:09;100965.78;;;32.71;33.78
49104;BME280;34915;52.926;11.116;2022-08-04T13:07:49;100950.84;;;32.39;33.71
49104;BME280;34915;52.926;11.116;2022-08-04T13:10:19;100954.31;;;32.74;32.78
49104;BME280;34915;52.926;11.116;2022-08-04T13:12:57;100938.69;;;32.90;32.05
49104;BME280;34915;52.926;11.116;2022-08-04T13:15:24;100935.25;;;33.11;32.76
49104;BME280;34915;52.926;11.116;2022-08-04T13:17:59;100945.72;;;33.14;32.94
49104;BME280;34915;52.926;11.116;2022-08-04T13:20:28;100944.75;;;33.53;30.42
49104;BME280;34915;52.926;11.116;2022-08-04T13:23:02;100941.19;;;33.52;30.50
49104;BME280;34915;52.926;11.116;2022-08-04T13:25:29;100937.38;;;33.42;31.85
49104;BME280;34915;52.926;11.116;2022-08-04T13:27:57;100934.78;;;33.47;31.90
49104;BME280;34915;52.926;11.116;2022-08-04T13:30:24;100931.31;;;33.73;31.87
49104;BME280;34915;52.926;11.116;2022-08-04T13:32:53;100935.56;;;34.01;30.72
49104;BME280;34915;52.926;11.116;2022-08-04T13:35:20;100932.19;;;34.37;30.08
49104;BME280;34915;52.926;11.116;2022-08-04T13:37:46;100925.03;;;34.89;28.76
49104;BME280;34915;52.926;11.116;2022-08-04T13:40:12;100914.25;;;35.13;28.02
49104;BME280;34915;52.926;11.116;2022-08-04T13:42:40;100921.50;;;35.24;29.25
49104;BME280;34915;52.926;11.116;2022-08-04T13:45:11;100922.69;;;35.33;28.54
49104;BME280;34915;52.926;11.116;2022-08-04T13:47:39;100921.47;;;35.50;28.33
49104;BME280;34915;52.926;11.116;2022-08-04T13:52:41;100912.72;;;35.27;28.78
49104;BME280;34915;52.926;11.116;2022-08-04T13:55:17;100910.28;;;34.99;29.12
49104;BME280;34915;52.926;11.116;2022-08-04T13:57:44;100917.97;;;34.71;30.30
49104;BME280;34915;52.926;11.116;2022-08-04T14:00:11;100909.25;;;34.53;29.02
49104;BME280;34915;52.926;11.116;2022-08-04T14:02:55;100902.59;;;34.49;29.53
49104;BME280;34915;52.926;11.116;2022-08-04T14:05:26;100885.50;;;34.26;29.90
49104;BME280;34915;52.926;11.116;2022-08-04T14:08:12;100885.09;;;34.12;31.13
49104;BME280;34915;52.926;11.116;2022-08-04T14:10:40;100874.00;;;34.55;28.93
49104;BME280;34915;52.926;11.116;2022-08-04T14:13:06;100873.16;;;34.81;28.85
49104;BME280;34915;52.926;11.116;2022-08-04T14:15:41;100877.22;;;34.99;30.05
49104;BME280;34915;52.926;11.116;2022-08-04T14:18:28;100872.81;;;35.03;29.34
49104;BME280;34915;52.926;11.116;2022-08-04T14:21:06;100866.94;;;35.26;29.11
49104;BME280;34915;52.926;11.116;2022-08-04T14:23:39;100868.97;;;35.04;28.63
49104;BME280;34915;52.926;11.116;2022-08-04T14:26:32;100857.31;;;34.92;29.22
49104;BME280;34915;52.926;11.116;2022-08-04T14:29:11;100858.00;;;35.09;29.03
49104;BME280;34915;52.926;11.116;2022-08-04T14:31:38;100863.63;;;35.29;28.58
49104;BME280;34915;52.926;11.116;2022-08-04T14:34:04;100862.75;;;35.19;29.85
49104;BME280;34915;52.926;11.116;2022-08-04T14:36:42;100866.28;;;35.09;29.04
49104;BME280;34915;52.926;11.116;2022-08-04T14:39:08;100854.13;;;35.05;29.25
49104;BME280;34915;52.926;11.116;2022-08-04T14:41:49;100861.09;;;34.87;29.02
49104;BME280;34915;52.926;11.116;2022-08-04T14:44:15;100847.25;;;34.82;29.73
49104;BME280;34915;52.926;11.116;2022-08-04T14:46:52;100848.00;;;34.98;29.17
49104;BME280;34915;52.926;11.116;2022-08-04T14:49:18;100846.03;;;34.94;30.21
49104;BME280;34915;52.926;11.116;2022-08-04T14:51:50;100844.78;;;35.11;30.47
49104;BME280;34915;52.926;11.116;2022-08-04T14:54:16;100844.97;;;35.36;30.60
49104;BME280;34915;52.926;11.116;2022-08-04T14:56:51;100840.69;;;35.19;29.92
49104;BME280;34915;52.926;11.116;2022-08-04T14:59:17;100841.63;;;35.34;28.83
49104;BME280;34915;52.926;11.116;2022-08-04T15:01:44;100830.50;;;35.60;28.41
49104;BME280;34915;52.926;11.116;2022-08-04T15:04:10;100818.19;;;35.83;28.34
49104;BME280;34915;52.926;11.116;2022-08-04T15:06:36;100816.56;;;35.92;29.00
49104;BME280;34915;52.926;11.116;2022-08-04T15:09:06;100824.88;;;35.96;27.90
49104;BME280;34915;52.926;11.116;2022-08-04T15:11:36;100818.81;;;35.99;28.32
49104;BME280;34915;52.926;11.116;2022-08-04T15:14:03;100812.75;;;36.02;28.28
49104;BME280;34915;52.926;11.116;2022-08-04T15:16:30;100817.72;;;36.05;28.59
49104;BME280;34915;52.926;11.116;2022-08-04T15:18:56;100820.50;;;36.05;28.13
49104;BME280;34915;52.926;11.116;2022-08-04T15:21:24;100819.91;;;36.03;27.84
49104;BME280;34915;52.926;11.116;2022-08-04T15:23:52;100816.84;;;35.85;28.13
49104;BME280;34915;52.926;11.116;2022-08-04T15:26:33;100817.00;;;35.64;28.20
49104;BME280;34915;52.926;11.116;2022-08-04T15:29:11;100821.22;;;35.35;29.46
49104;BME280;34915;52.926;11.116;2022-08-04T15:31:40;100817.78;;;35.13;29.97
49104;BME280;34915;52.926;11.116;2022-08-04T15:34:07;100808.94;;;35.11;28.91
49104;BME280;34915;52.926;11.116;2022-08-04T15:36:37;100807.16;;;34.91;29.77
49104;BME280;34915;52.926;11.116;2022-08-04T15:41:55;100804.56;;;34.48;30.44
49104;BME280;34915;52.926;11.116;2022-08-04T15:49:23;100807.09;;;34.28;29.53
49104;BME280;34915;52.926;11.116;2022-08-04T15:51:59;100807.69;;;34.35;29.43
49104;BME280;34915;52.926;11.116;2022-08-04T15:54:25;100807.28;;;34.22;30.57
49104;BME280;34915;52.926;11.116;2022-08-04T15:56:52;100804.28;;;34.23;29.99
49104;BME280;34915;52.926;11.116;2022-08-04T16:07:56;100809.97;;;33.90;31.21
49104;BME280;34915;52.926;11.116;2022-08-04T16:12:55;100805.38;;;33.75;32.00
49104;BME280;34915;52.926;11.116;2022-08-04T16:15:41;100814.50;;;34.01;31.55
49104;BME280;34915;52.926;11.116;2022-08-04T16:18:09;100801.69;;;34.12;31.30
49104;BME280;34915;52.926;11.116;2022-08-04T16:20:36;100817.84;;;34.03;32.71
49104;BME280;34915;52.926;11.116;2022-08-04T16:25:44;100819.72;;;34.24;30.61
49104;BME280;34915;52.926;11.116;2022-08-04T16:31:01;100832.44;;;34.30;30.87
49104;BME280;34915;52.926;11.116;2022-08-04T16:33:30;100840.72;;;34.35;30.47
49104;BME280;34915;52.926;11.116;2022-08-04T16:35:58;100850.84;;;34.51;30.26
49104;BME280;34915;52.926;11.116;2022-08-04T16:38:24;100850.66;;;34.36;31.43
49104;BME280;34915;52.926;11.116;2022-08-04T16:40:57;100857.16;;;34.25;31.89
49104;BME280;34915;52.926;11.116;2022-08-04T16:43:30;100849.97;;;33.98;32.21
49104;BME280;34915;52.926;11.116;2022-08-04T16:46:02;100863.44;;;33.78;33.51
49104;BME280;34915;52.926;11.116;2022-08-04T16:48:33;100862.84;;;33.55;34.26
49104;BME280;34915;52.926;11.116;2022-08-04T16:51:04;100860.66;;;33.19;34.81
49104;BME280;34915;52.926;11.116;2022-08-04T16:53:44;100867.22;;;32.86;35.36
49104;BME280;34915;52.926;11.116;2022-08-04T16:56:14;100866.28;;;32.64;35.64
49104;BME280;34915;52.926;11.116;2022-08-04T16:58:43;100862.56;;;32.42;36.75
49104;BME280;34915;52.926;11.116;2022-08-04T17:01:14;100902.59;;;32.27;36.20
49104;BME280;34915;52.926;11.116;2022-08-04T17:03:49;100947.59;;;32.14;36.99
49104;BME280;34915;52.926;11.116;2022-08-04T17:06:16;100988.63;;;31.86;37.18
49104;BME280;34915;52.926;11.116;2022-08-04T17:08:47;101056.34;;;31.75;37.54
49104;BME280;34915;52.926;11.116;2022-08-04T17:11:14;101097.78;;;31.44;40.30
49104;BME280;34915;52.926;11.116;2022-08-04T17:13:43;101089.25;;;30.58;53.25
49104;BME280;34915;52.926;11.116;2022-08-04T17:16:14;101087.72;;;29.16;63.28
49104;BME280;34915;52.926;11.116;2022-08-04T17:18:44;101071.09;;;28.37;69.96
49104;BME280;34915;52.926;11.116;2022-08-04T17:21:14;101048.53;;;27.27;75.17
49104;BME280;34915;52.926;11.116;2022-08-04T17:23:42;101029.31;;;26.63;79.02
49104;BME280;34915;52.926;11.116;2022-08-04T17:28:34;101035.97;;;26.20;80.59
49104;BME280;34915;52.926;11.116;2022-08-04T17:31:00;101027.94;;;25.99;82.82
49104;BME280;34915;52.926;11.116;2022-08-04T17:33:26;101024.81;;;26.02;81.30
49104;BME280;34915;52.926;11.116;2022-08-04T17:35:57;101031.75;;;26.11;80.99
49104;BME280;34915;52.926;11.116;2022-08-04T17:38:39;101028.22;;;26.11;80.54
49104;BME280;34915;52.926;11.116;2022-08-04T17:41:10;101028.81;;;26.06;81.72
49104;BME280;34915;52.926;11.116;2022-08-04T17:46:43;101030.25;;;26.02;83.43
49104;BME280;34915;52.926;11.116;2022-08-04T17:51:54;101033.28;;;26.60;76.24
49104;BME280;34915;52.926;11.116;2022-08-04T17:56:54;101016.81;;;26.28;79.28